createdAt,value
2017-09-27T00:02:04.883Z,13.20
2017-09-27T00:04:33.502Z,13.21
2017-09-27T00:07:02.165Z,13.20
2017-09-27T00:09:30.784Z,13.20
2017-09-27T00:11:59.495Z,13.20
2017-09-27T00:14:28.149Z,13.19
2017-09-27T00:16:56.805Z,13.19
2017-09-27T00:19:25.480Z,13.19
2017-09-27T00:21:54.135Z,13.18
2017-09-27T00:24:22.826Z,13.18
2017-09-27T00:26:51.462Z,13.16
2017-09-27T00:29:20.128Z,13.15
2017-09-27T00:31:48.792Z,13.14
2017-09-27T00:34:17.414Z,13.14
2017-09-27T00:36:46.104Z,13.13
2017-09-27T00:39:14.771Z,13.14
2017-09-27T00:41:43.397Z,13.14
2017-09-27T00:44:11.925Z,13.12
2017-09-27T00:46:40.422Z,13.13
2017-09-27T00:49:09.115Z,13.13
2017-09-27T00:51:37.749Z,13.12
2017-09-27T00:54:06.378Z,13.12
2017-09-27T00:56:34.748Z,13.12
2017-09-27T00:59:03.098Z,13.12
2017-09-27T01:01:31.774Z,13.10
2017-09-27T01:04:00.402Z,13.10
2017-09-27T01:06:29.033Z,13.11
2017-09-27T01:08:57.701Z,13.12
2017-09-27T01:11:26.026Z,13.11
2017-09-27T01:13:54.691Z,13.09
2017-09-27T01:16:23.351Z,13.12
2017-09-27T01:18:51.978Z,13.13
2017-09-27T01:21:20.334Z,13.13
2017-09-27T01:23:48.652Z,13.12
2017-09-27T01:26:17.020Z,13.14
2017-09-27T01:28:45.678Z,13.12
2017-09-27T01:31:14.317Z,13.15
2017-09-27T01:33:43.038Z,13.17
2017-09-27T01:36:11.204Z,13.15
2017-09-27T01:38:39.523Z,13.16
2017-09-27T01:41:08.236Z,13.17
2017-09-27T01:43:36.533Z,13.20
2017-09-27T01:46:04.879Z,13.23
2017-09-27T01:48:37.258Z,13.23
2017-09-27T01:51:05.969Z,13.22
2017-09-27T01:53:34.635Z,13.19
2017-09-27T01:56:02.982Z,13.21
2017-09-27T01:58:35.433Z,13.21
2017-09-27T02:01:04.130Z,13.25
2017-09-27T02:03:32.745Z,13.26
2017-09-27T02:06:01.381Z,13.27
2017-09-27T02:08:30.082Z,13.29
2017-09-27T02:10:58.714Z,13.31
2017-09-27T02:13:27.390Z,13.31
2017-09-27T02:16:00.550Z,13.33
2017-09-27T02:18:29.212Z,13.33
2017-09-27T02:20:57.841Z,13.34
2017-09-27T02:23:26.461Z,13.34
2017-09-27T02:25:55.130Z,13.35
2017-09-27T02:28:23.785Z,13.31
2017-09-27T02:30:52.453Z,13.32
2017-09-27T02:33:21.091Z,13.33
2017-09-27T02:35:49.741Z,13.31
2017-09-27T02:38:18.433Z,13.35
2017-09-27T02:40:47.097Z,13.36
2017-09-27T02:43:15.730Z,13.38
2017-09-27T02:45:44.404Z,13.38
2017-09-27T02:48:13.042Z,13.40
2017-09-27T02:50:41.653Z,13.41
2017-09-27T02:53:10.314Z,13.40
2017-09-27T02:55:38.965Z,13.41
2017-09-27T02:58:07.666Z,13.42
2017-09-27T03:00:36.355Z,13.42
2017-09-27T03:03:04.978Z,13.42
2017-09-27T03:05:33.657Z,13.44
2017-09-27T03:08:02.278Z,13.45
2017-09-27T03:10:31.058Z,13.46
2017-09-27T03:12:59.722Z,13.46
2017-09-27T03:15:28.333Z,13.45
2017-09-27T03:17:56.994Z,13.43
2017-09-27T03:20:25.615Z,13.45
2017-09-27T03:22:54.249Z,13.45
2017-09-27T03:25:22.765Z,13.46
2017-09-27T03:27:51.286Z,13.47
2017-09-27T03:30:19.908Z,13.48
2017-09-27T03:32:48.593Z,13.46
2017-09-27T03:35:16.989Z,13.45
2017-09-27T03:37:45.597Z,13.46
2017-09-27T03:40:14.253Z,13.44
2017-09-27T03:42:42.869Z,13.47
2017-09-27T03:45:11.583Z,13.49
2017-09-27T03:47:40.201Z,13.50
2017-09-27T03:50:08.814Z,13.51
2017-09-27T03:52:37.533Z,13.52
2017-09-27T03:55:06.181Z,13.52
2017-09-27T03:57:34.882Z,13.53
2017-09-27T04:00:03.382Z,13.53
2017-09-27T04:02:32.078Z,13.53
2017-09-27T04:05:00.730Z,13.54
2017-09-27T04:07:29.349Z,13.55
2017-09-27T04:09:58.009Z,13.55
2017-09-27T04:12:26.679Z,13.54
2017-09-27T04:14:55.302Z,13.56
2017-09-27T04:17:23.933Z,13.56
2017-09-27T04:19:52.580Z,13.57
2017-09-27T04:22:21.198Z,13.56
2017-09-27T04:24:49.852Z,13.57
2017-09-27T04:27:18.560Z,13.59
2017-09-27T04:29:48.731Z,13.61
2017-09-27T04:32:17.405Z,13.59
2017-09-27T04:34:46.016Z,13.61
2017-09-27T04:37:15.865Z,13.62
2017-09-27T04:39:45.629Z,13.63
2017-09-27T04:42:16.326Z,13.63
2017-09-27T04:44:45.006Z,13.62
2017-09-27T04:47:13.667Z,13.63
2017-09-27T04:49:42.314Z,13.63
2017-09-27T04:52:10.927Z,13.63
2017-09-27T04:54:39.597Z,13.64
2017-09-27T04:57:08.219Z,13.65
2017-09-27T04:59:36.887Z,13.66
2017-09-27T05:02:05.369Z,13.66
2017-09-27T05:04:34.030Z,13.66
2017-09-27T05:07:02.696Z,13.66
2017-09-27T05:09:31.383Z,13.69
2017-09-27T05:12:00.039Z,13.70
2017-09-27T05:14:28.701Z,13.69
2017-09-27T05:16:57.357Z,13.69
2017-09-27T05:19:25.995Z,13.68
2017-09-27T05:21:54.618Z,13.70
2017-09-27T05:24:23.327Z,13.70
2017-09-27T05:26:52.004Z,13.71
2017-09-27T05:29:20.613Z,13.72
2017-09-27T05:31:49.232Z,13.73
2017-09-27T05:34:17.887Z,13.74
2017-09-27T05:36:46.525Z,13.75
2017-09-27T05:39:15.193Z,13.75
2017-09-27T05:41:43.808Z,13.76
2017-09-27T05:44:12.434Z,13.77
2017-09-27T05:46:41.102Z,13.75
2017-09-27T05:49:09.585Z,13.76
2017-09-27T05:51:38.373Z,13.78
2017-09-27T05:54:07.028Z,13.79
2017-09-27T05:56:35.563Z,13.80
2017-09-27T05:59:04.197Z,13.81
2017-09-27T06:01:32.868Z,13.82
2017-09-27T06:04:01.535Z,13.81
2017-09-27T06:06:30.210Z,13.81
2017-09-27T06:08:58.869Z,13.81
2017-09-27T06:11:27.507Z,13.83
2017-09-27T06:13:56.166Z,13.84
2017-09-27T06:16:24.784Z,13.85
2017-09-27T06:18:53.399Z,13.85
2017-09-27T06:21:22.078Z,13.87
2017-09-27T06:23:50.718Z,13.87
2017-09-27T06:26:19.398Z,13.87
2017-09-27T06:28:48.025Z,13.89
2017-09-27T06:31:16.522Z,13.88
2017-09-27T06:33:45.174Z,13.89
2017-09-27T06:36:13.840Z,13.91
2017-09-27T06:38:42.449Z,13.91
2017-09-27T06:41:11.094Z,13.92
2017-09-27T06:43:39.772Z,13.92
2017-09-27T06:46:08.489Z,13.93
2017-09-27T06:48:37.802Z,13.93
2017-09-27T06:51:06.437Z,13.96
2017-09-27T06:53:35.109Z,13.96
2017-09-27T06:56:03.738Z,13.96
2017-09-27T06:58:34.895Z,13.97
2017-09-27T07:01:03.566Z,13.98
2017-09-27T07:03:32.242Z,13.98
2017-09-27T07:06:00.912Z,13.99
2017-09-27T07:08:29.607Z,13.99
2017-09-27T07:10:58.287Z,14.01
2017-09-27T07:13:26.980Z,14.00
2017-09-27T07:15:55.590Z,14.00
2017-09-27T07:18:24.204Z,14.02
2017-09-27T07:20:52.861Z,14.03
2017-09-27T07:23:21.477Z,14.04
2017-09-27T07:25:50.221Z,14.04
2017-09-27T07:28:18.863Z,14.06
2017-09-27T07:30:47.514Z,14.06
2017-09-27T07:33:16.058Z,14.06
2017-09-27T07:35:44.742Z,14.08
2017-09-27T07:38:13.358Z,14.09
2017-09-27T07:40:42.011Z,14.10
2017-09-27T07:43:10.621Z,14.11
2017-09-27T07:45:39.323Z,14.12
2017-09-27T07:48:07.941Z,14.13
2017-09-27T07:50:36.565Z,14.14
2017-09-27T07:53:05.215Z,14.16
2017-09-27T07:55:33.866Z,14.18
2017-09-27T07:58:02.489Z,14.18
2017-09-27T08:00:31.100Z,14.20
2017-09-27T08:02:59.781Z,14.20
2017-09-27T08:05:28.469Z,14.22
2017-09-27T08:07:57.129Z,14.24
2017-09-27T08:10:25.797Z,14.26
2017-09-27T08:12:54.405Z,14.28
2017-09-27T08:15:23.073Z,14.29
2017-09-27T08:17:51.695Z,14.32
2017-09-27T08:20:20.361Z,14.33
2017-09-27T08:22:48.989Z,14.34
2017-09-27T08:25:17.672Z,14.35
2017-09-27T08:27:46.277Z,14.38
2017-09-27T08:30:14.893Z,14.41
2017-09-27T08:32:43.546Z,14.42
2017-09-27T08:35:12.243Z,14.45
2017-09-27T08:37:40.898Z,14.46
2017-09-27T08:40:09.543Z,14.49
2017-09-27T08:42:38.227Z,14.52
2017-09-27T08:45:06.845Z,14.54
2017-09-27T08:47:35.509Z,14.58
2017-09-27T08:50:04.170Z,14.61
2017-09-27T08:52:32.852Z,14.63
2017-09-27T08:55:01.466Z,14.65
2017-09-27T08:57:30.139Z,14.68
2017-09-27T08:59:58.781Z,14.70
2017-09-27T09:02:27.410Z,14.73
2017-09-27T09:04:56.173Z,14.75
2017-09-27T09:07:24.639Z,14.79
2017-09-27T09:09:53.310Z,14.81
2017-09-27T09:12:21.922Z,14.83
2017-09-27T09:14:50.615Z,14.85
2017-09-27T09:17:19.230Z,14.89
2017-09-27T09:19:47.901Z,14.91
2017-09-27T09:22:16.549Z,14.95
2017-09-27T09:24:45.180Z,14.97
2017-09-27T09:27:13.842Z,15.02
2017-09-27T09:29:42.495Z,15.04
2017-09-27T09:32:11.118Z,15.08
2017-09-27T09:34:39.794Z,15.13
2017-09-27T09:37:08.481Z,15.17
2017-09-27T09:39:37.134Z,15.22
2017-09-27T09:42:05.745Z,15.27
2017-09-27T09:44:34.486Z,15.32
2017-09-27T09:47:03.145Z,15.34
2017-09-27T09:49:31.819Z,15.37
2017-09-27T09:52:00.430Z,15.40
2017-09-27T09:54:29.126Z,15.43
2017-09-27T09:56:57.761Z,15.47
2017-09-27T09:59:26.473Z,15.50
2017-09-27T10:01:55.086Z,15.52
2017-09-27T10:04:23.745Z,15.57
2017-09-27T10:06:52.420Z,15.58
2017-09-27T10:09:21.026Z,15.61
2017-09-27T10:11:49.679Z,15.64
2017-09-27T10:14:18.299Z,15.66
2017-09-27T10:16:46.974Z,15.70
2017-09-27T10:19:15.602Z,15.71
2017-09-27T10:21:44.321Z,15.75
2017-09-27T10:24:12.978Z,15.78
2017-09-27T10:26:41.589Z,15.80
2017-09-27T10:29:10.384Z,15.82
2017-09-27T10:31:38.989Z,15.83
2017-09-27T10:34:07.677Z,15.87
2017-09-27T10:36:36.303Z,15.91
2017-09-27T10:39:04.413Z,15.93
2017-09-27T10:41:33.083Z,15.95
2017-09-27T10:44:01.751Z,15.98
2017-09-27T10:46:30.408Z,15.99
2017-09-27T10:48:59.022Z,16.00
2017-09-27T10:51:27.683Z,16.04
2017-09-27T10:53:56.313Z,16.07
2017-09-27T10:56:24.970Z,16.10
2017-09-27T10:58:53.592Z,16.12
2017-09-27T11:01:22.249Z,16.17
2017-09-27T11:03:50.873Z,16.19
2017-09-27T11:06:19.539Z,16.21
2017-09-27T11:08:48.179Z,16.23
2017-09-27T11:11:16.889Z,16.25
2017-09-27T11:13:45.566Z,16.28
2017-09-27T11:16:15.613Z,16.30
2017-09-27T11:18:44.226Z,16.33
2017-09-27T11:21:12.934Z,16.36
2017-09-27T11:23:41.601Z,16.39
2017-09-27T11:26:10.265Z,16.43
2017-09-27T11:28:38.894Z,16.48
2017-09-27T11:31:07.557Z,16.51
2017-09-27T11:33:36.189Z,16.51
2017-09-27T11:36:04.821Z,16.53
2017-09-27T11:38:35.423Z,16.55
2017-09-27T11:41:04.113Z,16.59
2017-09-27T11:43:32.778Z,16.59
2017-09-27T11:46:01.381Z,16.63
2017-09-27T11:51:05.303Z,16.66
2017-09-27T11:53:33.990Z,16.72
2017-09-27T11:56:02.615Z,16.73
2017-09-27T11:58:34.790Z,16.77
2017-09-27T12:01:03.452Z,16.80
2017-09-27T12:03:31.975Z,16.82
2017-09-27T12:06:00.606Z,16.86
2017-09-27T12:08:29.226Z,16.88
2017-09-27T12:10:57.909Z,16.88
2017-09-27T12:13:26.546Z,16.91
2017-09-27T12:15:55.162Z,16.94
2017-09-27T12:18:23.825Z,16.99
2017-09-27T12:20:52.433Z,17.00
2017-09-27T12:23:21.108Z,17.02
2017-09-27T12:25:49.723Z,17.05
2017-09-27T12:28:18.389Z,17.07
2017-09-27T12:30:47.006Z,17.09
2017-09-27T12:33:15.639Z,17.08
2017-09-27T12:35:44.335Z,17.10
2017-09-27T12:38:12.958Z,17.13
2017-09-27T12:40:41.654Z,17.14
2017-09-27T12:43:10.270Z,17.16
2017-09-27T12:45:38.948Z,17.16
2017-09-27T12:48:07.574Z,17.17
2017-09-27T12:50:36.242Z,17.19
2017-09-27T12:53:04.905Z,17.22
2017-09-27T12:55:33.570Z,17.23
2017-09-27T12:58:02.194Z,17.26
2017-09-27T13:00:30.852Z,17.26
2017-09-27T13:02:59.532Z,17.27
2017-09-27T13:05:28.154Z,17.25
2017-09-27T13:07:56.827Z,17.28
2017-09-27T13:10:25.453Z,17.30
2017-09-27T13:12:54.066Z,17.31
2017-09-27T13:15:22.738Z,17.33
2017-09-27T13:17:51.399Z,17.33
2017-09-27T13:20:20.067Z,17.34
2017-09-27T13:22:48.696Z,17.35
2017-09-27T13:25:17.305Z,17.36
2017-09-27T13:27:45.970Z,17.38
2017-09-27T13:30:14.598Z,17.38
2017-09-27T13:32:43.262Z,17.40
2017-09-27T13:35:11.889Z,17.38
2017-09-27T13:37:40.513Z,17.40
2017-09-27T13:40:09.173Z,17.41
2017-09-27T13:42:37.813Z,17.42
2017-09-27T13:45:06.485Z,17.41
2017-09-27T13:47:35.103Z,17.41
2017-09-27T13:50:03.727Z,17.42
2017-09-27T13:52:32.386Z,17.41
2017-09-27T13:55:01.070Z,17.42
2017-09-27T13:57:29.707Z,17.44
2017-09-27T13:59:58.372Z,17.42
2017-09-27T14:02:27.037Z,17.43
2017-09-27T14:04:55.718Z,17.44
2017-09-27T14:07:24.334Z,17.42
2017-09-27T14:09:52.966Z,17.46
2017-09-27T14:12:21.700Z,17.46
2017-09-27T14:14:50.309Z,17.47
2017-09-27T14:17:18.968Z,17.48
2017-09-27T14:19:47.603Z,17.48
2017-09-27T14:22:16.292Z,17.51
2017-09-27T14:24:44.909Z,17.52
2017-09-27T14:27:13.522Z,17.53
2017-09-27T14:29:42.211Z,17.54
2017-09-27T14:32:10.880Z,17.59
2017-09-27T14:34:39.497Z,17.58
2017-09-27T14:37:08.135Z,17.61
2017-09-27T14:39:36.801Z,17.62
2017-09-27T14:42:05.494Z,17.64
2017-09-27T14:44:34.134Z,17.66
2017-09-27T14:47:02.789Z,17.66
2017-09-27T14:49:31.425Z,17.67
2017-09-27T14:52:13.812Z,17.66
2017-09-27T14:54:43.257Z,17.67
2017-09-27T14:57:11.942Z,17.70
2017-09-27T14:59:40.593Z,17.70
2017-09-27T15:02:09.237Z,17.74
2017-09-27T15:04:37.905Z,17.74
2017-09-27T15:07:06.567Z,17.73
2017-09-27T15:09:35.253Z,17.74
2017-09-27T15:12:03.875Z,17.73
2017-09-27T15:14:32.498Z,17.76
2017-09-27T15:17:01.145Z,17.76
2017-09-27T15:19:29.770Z,17.72
2017-09-27T15:21:58.465Z,17.73
2017-09-27T15:24:27.160Z,17.72
2017-09-27T15:26:55.770Z,17.73
2017-09-27T15:29:24.392Z,17.73
2017-09-27T15:31:53.058Z,17.73
2017-09-27T15:34:21.718Z,17.71
2017-09-27T15:36:50.382Z,17.71
2017-09-27T15:39:19.029Z,17.72
2017-09-27T15:41:47.712Z,17.68
2017-09-27T15:44:16.366Z,17.66
2017-09-27T15:46:45.022Z,17.69
2017-09-27T15:49:13.648Z,17.68
2017-09-27T15:51:42.338Z,17.68
2017-09-27T15:54:10.953Z,17.66
2017-09-27T15:56:39.631Z,17.64
2017-09-27T15:59:08.253Z,17.64
2017-09-27T16:01:39.331Z,17.61
2017-09-27T16:04:08.003Z,17.61
2017-09-27T16:06:36.634Z,17.60
2017-09-27T16:09:04.837Z,17.58
2017-09-27T16:11:33.461Z,17.57
2017-09-27T16:14:02.131Z,17.56
2017-09-27T16:16:30.783Z,17.54
2017-09-27T16:18:59.406Z,17.54
2017-09-27T16:21:28.074Z,17.50
2017-09-27T16:23:56.857Z,17.50
2017-09-27T16:26:25.521Z,17.49
2017-09-27T16:28:54.191Z,17.45
2017-09-27T16:31:22.845Z,17.45
2017-09-27T16:33:51.459Z,17.45
2017-09-27T16:36:20.164Z,17.43
2017-09-27T16:38:48.790Z,17.41
2017-09-27T16:41:17.401Z,17.41
2017-09-27T16:43:46.071Z,17.40
2017-09-27T16:46:14.698Z,17.37
2017-09-27T16:48:43.351Z,17.37
2017-09-27T16:51:11.974Z,17.35
2017-09-27T16:53:40.634Z,17.34
2017-09-27T16:56:09.302Z,17.30
2017-09-27T16:58:37.970Z,17.31
2017-09-27T17:01:06.606Z,17.28
2017-09-27T17:03:35.282Z,17.27
2017-09-27T17:06:03.942Z,17.26
2017-09-27T17:08:35.006Z,17.23
2017-09-27T17:11:03.664Z,17.22
2017-09-27T17:13:32.334Z,17.20
2017-09-27T17:16:00.971Z,17.18
2017-09-27T17:18:29.634Z,17.16
2017-09-27T17:20:58.237Z,17.13
2017-09-27T17:23:26.893Z,17.12
2017-09-27T17:25:59.316Z,17.08
2017-09-27T17:28:28.078Z,17.07
2017-09-27T17:31:06.781Z,17.04
2017-09-27T17:33:48.204Z,17.01
2017-09-27T17:36:27.016Z,16.98
2017-09-27T17:39:00.739Z,16.94
2017-09-27T17:41:43.239Z,16.92
2017-09-27T17:44:19.288Z,16.89
2017-09-27T17:47:02.455Z,16.86
2017-09-27T17:49:39.369Z,16.83
2017-09-27T17:52:20.993Z,16.80
2017-09-27T17:55:03.360Z,16.77
2017-09-27T17:57:41.673Z,16.75
2017-09-27T18:00:22.311Z,16.71
2017-09-27T18:03:01.084Z,16.69
2017-09-27T18:09:13.800Z,16.63
2017-09-27T18:12:00.562Z,16.61
2017-09-27T18:14:46.647Z,16.58
2017-09-27T18:17:32.015Z,16.56
2017-09-27T18:20:16.372Z,16.54
2017-09-27T18:22:58.177Z,16.53
2017-09-27T18:25:40.031Z,16.52
2017-09-27T18:28:21.828Z,16.50
2017-09-27T18:31:04.288Z,16.49
2017-09-27T18:33:45.620Z,16.47
2017-09-27T18:36:27.019Z,16.46
2017-09-27T18:39:07.898Z,16.45
2017-09-27T18:41:45.711Z,16.44
2017-09-27T18:44:27.714Z,16.41
2017-09-27T18:47:06.326Z,16.41
2017-09-27T18:49:49.142Z,16.39
2017-09-27T18:52:28.980Z,16.38
2017-09-27T18:55:07.155Z,16.38
2017-09-27T18:57:49.477Z,16.37
2017-09-27T19:00:36.740Z,16.36
2017-09-27T19:03:07.528Z,16.35
2017-09-27T19:05:51.504Z,16.34
2017-09-27T19:08:33.051Z,16.33
2017-09-27T19:11:14.656Z,16.32
2017-09-27T19:13:53.464Z,16.31
2017-09-27T19:16:24.429Z,16.30
2017-09-27T19:18:58.851Z,16.29
2017-09-27T19:21:29.958Z,16.28
2017-09-27T19:24:00.309Z,16.26
2017-09-27T19:26:30.840Z,16.26
2017-09-27T19:29:03.737Z,16.26
2017-09-27T19:31:34.752Z,16.25
2017-09-27T19:34:07.984Z,16.24
2017-09-27T19:36:38.586Z,16.23
2017-09-27T19:39:09.972Z,16.22
2017-09-27T19:41:41.637Z,16.22
2017-09-27T19:44:18.038Z,16.21
2017-09-27T19:46:49.052Z,16.21
2017-09-27T19:49:20.130Z,16.20
2017-09-27T19:51:54.884Z,16.19
2017-09-27T19:54:26.192Z,16.19
2017-09-27T19:56:55.813Z,16.17
2017-09-27T19:59:27.479Z,16.15
2017-09-27T20:01:58.296Z,16.15
2017-09-27T20:04:29.058Z,16.15
2017-09-27T20:06:57.809Z,16.13
2017-09-27T20:09:31.358Z,16.13
2017-09-27T20:12:01.253Z,16.13
2017-09-27T20:14:30.486Z,16.11
2017-09-27T20:17:01.061Z,16.10
2017-09-27T20:19:31.615Z,16.10
2017-09-27T20:22:00.940Z,16.10
2017-09-27T20:24:31.387Z,16.08
2017-09-27T20:27:06.728Z,16.07
2017-09-27T20:29:39.088Z,16.05
2017-09-27T20:32:11.051Z,16.04
2017-09-27T20:34:40.544Z,16.03
2017-09-27T20:37:09.161Z,16.02
2017-09-27T20:39:37.809Z,16.01
2017-09-27T20:42:06.443Z,16.00
2017-09-27T20:44:35.112Z,15.99
2017-09-27T20:47:03.738Z,15.97
2017-09-27T20:49:32.366Z,15.97
2017-09-27T20:52:01.066Z,15.95
2017-09-27T20:54:33.579Z,15.93
2017-09-27T20:57:06.037Z,15.93
2017-09-27T20:59:38.642Z,15.92
2017-09-27T21:02:16.397Z,15.90
2017-09-27T21:04:48.302Z,15.88
2017-09-27T21:07:20.147Z,15.87
2017-09-27T21:09:51.201Z,15.85
2017-09-27T21:12:22.357Z,15.83
2017-09-27T21:14:54.060Z,15.81
2017-09-27T21:17:25.681Z,15.79
2017-09-27T21:19:56.355Z,15.78
2017-09-27T21:22:25.086Z,15.75
2017-09-27T21:25:07.891Z,15.74
2017-09-27T21:27:48.518Z,15.71
2017-09-27T21:30:24.899Z,15.70
2017-09-27T21:33:05.785Z,15.69
2017-09-27T21:35:37.729Z,15.66
2017-09-27T21:38:09.503Z,15.64
2017-09-27T21:40:41.695Z,15.63
2017-09-27T21:43:13.860Z,15.61
2017-09-27T21:45:45.334Z,15.58
2017-09-27T21:48:14.009Z,15.58
2017-09-27T21:50:42.616Z,15.55
2017-09-27T21:53:11.297Z,15.53
2017-09-27T21:55:39.938Z,15.49
2017-09-27T21:58:08.574Z,15.48
2017-09-27T22:00:37.241Z,15.46
2017-09-27T22:03:05.907Z,15.44
2017-09-27T22:05:34.085Z,15.41
2017-09-27T22:08:02.702Z,15.38
2017-09-27T22:10:31.358Z,15.36
2017-09-27T22:13:00.011Z,15.35
2017-09-27T22:15:28.635Z,15.32
2017-09-27T22:17:57.268Z,15.30
2017-09-27T22:20:26.010Z,15.27
2017-09-27T22:22:54.649Z,15.25
2017-09-27T22:25:23.337Z,15.23
2017-09-27T22:27:51.986Z,15.20
2017-09-27T22:30:20.617Z,15.18
2017-09-27T22:32:49.329Z,15.16
2017-09-27T22:35:17.983Z,15.14
2017-09-27T22:37:46.645Z,15.11
2017-09-27T22:40:15.249Z,15.08
2017-09-27T22:42:43.910Z,15.05
2017-09-27T22:45:12.575Z,15.02
2017-09-27T22:47:41.186Z,15.01
2017-09-27T22:50:10.250Z,14.97
2017-09-27T22:52:38.927Z,14.95
2017-09-27T22:55:07.604Z,14.92
2017-09-27T22:57:36.223Z,14.89
2017-09-27T23:00:04.924Z,14.88
2017-09-27T23:02:33.539Z,14.84
2017-09-27T23:05:02.154Z,14.82
2017-09-27T23:07:30.808Z,14.80
2017-09-27T23:09:59.433Z,14.76
2017-09-27T23:12:36.100Z,14.73
2017-09-27T23:15:12.423Z,14.70
2017-09-27T23:17:49.074Z,14.68
2017-09-27T23:20:23.008Z,14.65
2017-09-27T23:22:58.274Z,14.63
2017-09-27T23:25:32.352Z,14.60
2017-09-27T23:28:09.114Z,14.57
2017-09-27T23:30:46.796Z,14.54
2017-09-27T23:33:27.785Z,14.52
2017-09-27T23:36:07.305Z,14.50
2017-09-27T23:38:47.537Z,14.48
2017-09-27T23:41:25.830Z,14.44
2017-09-27T23:44:01.058Z,14.42
2017-09-27T23:46:36.048Z,14.40
2017-09-27T23:49:07.255Z,14.38
2017-09-27T23:51:35.994Z,14.36
2017-09-27T23:54:04.610Z,14.34
2017-09-27T23:56:33.270Z,14.33
2017-09-27T23:59:02.032Z,14.31
